createdAt,value
2023-04-20T00:01:14.526Z,98739.56
2023-04-20T00:03:41.847Z,98742.22
2023-04-20T00:06:09.312Z,98737.91
2023-04-20T00:08:36.244Z,98745.03
2023-04-20T00:11:03.419Z,98741.56
2023-04-20T00:13:30.412Z,98745.13
2023-04-20T00:15:57.580Z,98745.22
2023-04-20T00:18:24.465Z,98740.09
2023-04-20T00:20:51.633Z,98746.34
2023-04-20T00:23:18.474Z,98745.44
2023-04-20T00:25:45.709Z,98743.75
2023-04-20T00:28:12.578Z,98737.66
2023-04-20T00:30:39.720Z,98741.97
2023-04-20T00:33:06.620Z,98747.19
2023-04-20T00:35:33.964Z,98744.56
2023-04-20T00:38:00.825Z,98740.16
2023-04-20T00:40:27.911Z,98738.31
2023-04-20T00:42:54.905Z,98742.66
2023-04-20T00:45:22.353Z,98744.25
2023-04-20T00:47:49.327Z,98737.25
2023-04-20T00:50:17.819Z,98737.09
2023-04-20T00:52:45.715Z,98740.47
2023-04-20T00:55:12.919Z,98735.09
2023-04-20T00:57:41.733Z,98732.41
2023-04-20T01:00:10.681Z,98733.19
2023-04-20T01:02:37.834Z,98734.84
2023-04-20T01:05:05.648Z,98732.13
2023-04-20T01:07:32.652Z,98731.16
2023-04-20T01:09:59.974Z,98728.53
2023-04-20T01:12:26.890Z,98728.53
2023-04-20T01:14:54.020Z,98725.91
2023-04-20T01:17:21.351Z,98726.00
2023-04-20T01:19:49.259Z,98726.09
2023-04-20T01:22:21.236Z,98725.38
2023-04-20T01:24:48.988Z,98725.47
2023-04-20T01:27:17.193Z,98720.41
2023-04-20T01:29:45.288Z,98722.31
2023-04-20T01:32:12.445Z,98719.75
2023-04-20T01:34:39.637Z,98721.72
2023-04-20T01:37:08.361Z,98723.53
2023-04-20T01:39:37.601Z,98723.59
2023-04-20T01:42:05.832Z,98718.47
2023-04-20T01:44:32.961Z,98717.81
2023-04-20T01:47:00.009Z,98720.59
2023-04-20T01:49:27.352Z,98714.63
2023-04-20T01:51:54.262Z,98717.28
2023-04-20T01:54:21.603Z,98717.38
2023-04-20T01:56:48.466Z,98724.44
2023-04-20T01:59:15.818Z,98720.94
2023-04-20T02:01:42.996Z,98721.81
2023-04-20T02:04:10.335Z,98723.53
2023-04-20T02:06:37.292Z,98724.44
2023-04-20T02:09:04.660Z,98728.78
2023-04-20T02:11:31.504Z,98729.78
2023-04-20T02:13:58.668Z,98726.31
2023-04-20T02:16:25.677Z,98729.00
2023-04-20T02:18:52.872Z,98730.72
2023-04-20T02:21:19.683Z,98730.66
2023-04-20T02:23:46.863Z,98726.28
2023-04-20T02:26:13.805Z,98723.53
2023-04-20T02:28:41.060Z,98720.84
2023-04-20T02:31:07.927Z,98724.38
2023-04-20T02:33:35.275Z,98723.53
2023-04-20T02:36:02.176Z,98722.66
2023-04-20T02:38:29.324Z,98717.41
2023-04-20T02:40:56.249Z,98722.63
2023-04-20T02:43:23.499Z,98719.00
2023-04-20T02:45:50.534Z,98721.56
2023-04-20T02:48:17.861Z,98726.81
2023-04-20T02:50:44.803Z,98722.34
2023-04-20T02:53:11.950Z,98723.28
2023-04-20T02:55:38.820Z,98721.47
2023-04-20T02:58:06.101Z,98727.50
2023-04-20T03:00:32.944Z,98722.19
2023-04-20T03:03:00.295Z,98718.56
2023-04-20T03:05:27.284Z,98722.06
2023-04-20T03:07:54.449Z,98722.00
2023-04-20T03:10:21.343Z,98719.50
2023-04-20T03:12:48.625Z,98730.06
2023-04-20T03:15:17.129Z,98722.97
2023-04-20T03:17:44.357Z,98730.84
2023-04-20T03:20:12.008Z,98725.59
2023-04-20T03:22:39.101Z,98728.31
2023-04-20T03:25:06.570Z,98731.78
2023-04-20T03:27:33.736Z,98730.13
2023-04-20T03:30:00.841Z,98734.47
2023-04-20T03:32:28.022Z,98734.50
2023-04-20T03:34:54.864Z,98742.28
2023-04-20T03:37:22.068Z,98742.34
2023-04-20T03:39:48.935Z,98750.41
2023-04-20T03:42:16.330Z,98752.28
2023-04-20T03:44:43.187Z,98752.44
2023-04-20T03:47:10.987Z,98746.34
2023-04-20T03:49:37.926Z,98750.72
2023-04-20T03:52:05.715Z,98743.69
2023-04-20T03:54:32.576Z,98747.94
2023-04-20T03:56:59.762Z,98741.78
2023-04-20T03:59:26.670Z,98743.44
2023-04-20T04:01:54.286Z,98735.38
2023-04-20T04:04:21.426Z,98743.94
2023-04-20T04:06:48.962Z,98741.25
2023-04-20T04:09:15.940Z,98743.81
2023-04-20T04:11:43.459Z,98744.50
2023-04-20T04:14:10.663Z,98747.81
2023-04-20T04:16:38.009Z,98752.88
2023-04-20T04:19:04.831Z,98754.47
2023-04-20T04:21:31.960Z,98756.81
2023-04-20T04:23:59.092Z,98760.16
2023-04-20T04:26:26.798Z,98765.22
2023-04-20T04:28:53.670Z,98760.56
2023-04-20T04:31:21.759Z,98771.69
2023-04-20T04:33:49.741Z,98778.41
2023-04-20T04:36:17.735Z,98777.28
2023-04-20T04:38:44.874Z,98770.09
2023-04-20T04:41:12.845Z,98776.00
2023-04-20T04:43:41.139Z,98777.53
2023-04-20T04:46:13.274Z,98773.84
2023-04-20T04:48:43.489Z,98778.81
2023-04-20T04:51:10.804Z,98773.28
2023-04-20T04:53:38.099Z,98773.88
2023-04-20T04:56:06.994Z,98778.91
2023-04-20T04:58:33.927Z,98783.09
2023-04-20T05:01:01.146Z,98783.75
2023-04-20T05:03:28.111Z,98790.50
2023-04-20T05:05:55.463Z,98790.16
2023-04-20T05:08:24.476Z,98790.72
2023-04-20T05:10:51.672Z,98798.38
2023-04-20T05:13:18.564Z,98796.44
2023-04-20T05:15:45.694Z,98797.13
2023-04-20T05:18:12.500Z,98808.44
2023-04-20T05:20:39.664Z,98807.34
2023-04-20T05:23:06.476Z,98803.66
2023-04-20T05:25:33.821Z,98804.41
2023-04-20T05:28:00.867Z,98808.66
2023-04-20T05:30:28.036Z,98810.31
2023-04-20T05:32:55.019Z,98808.31
2023-04-20T05:35:22.525Z,98800.28
2023-04-20T05:37:49.430Z,98806.19
2023-04-20T05:40:16.630Z,98806.91
2023-04-20T05:42:43.595Z,98816.31
2023-04-20T05:45:11.484Z,98814.31
2023-04-20T05:47:38.458Z,98810.63
2023-04-20T05:50:06.566Z,98819.81
2023-04-20T05:52:33.529Z,98821.22
2023-04-20T05:55:00.666Z,98811.03
2023-04-20T05:57:27.613Z,98824.50
2023-04-20T05:59:56.171Z,98830.19
2023-04-20T06:02:23.384Z,98830.69
2023-04-20T06:04:50.842Z,98840.00
2023-04-20T06:07:30.073Z,98830.00
2023-04-20T06:09:57.575Z,98834.22
2023-04-20T06:12:26.262Z,98837.47
2023-04-20T06:14:53.916Z,98838.88
2023-04-20T06:17:20.751Z,98836.75
2023-04-20T06:19:48.002Z,98833.72
2023-04-20T06:22:15.919Z,98834.19
2023-04-20T06:24:43.246Z,98832.94
2023-04-20T06:27:10.750Z,98833.41
2023-04-20T06:29:38.259Z,98839.06
2023-04-20T06:32:05.385Z,98836.91
2023-04-20T06:34:32.720Z,98833.00
2023-04-20T06:36:59.589Z,98834.38
2023-04-20T06:39:26.757Z,98836.63
2023-04-20T06:41:53.597Z,98832.72
2023-04-20T06:44:20.847Z,98830.50
2023-04-20T06:46:47.811Z,98838.06
2023-04-20T06:49:15.122Z,98835.75
2023-04-20T06:51:43.208Z,98835.09
2023-04-20T06:54:10.454Z,98835.19
2023-04-20T06:56:37.319Z,98834.28
2023-04-20T06:59:04.523Z,98826.16
2023-04-20T07:01:31.430Z,98831.09
2023-04-20T07:03:58.903Z,98836.66
2023-04-20T07:06:27.589Z,98845.25
2023-04-20T07:08:54.677Z,98844.25
2023-04-20T07:11:21.564Z,98844.66
2023-04-20T07:13:48.781Z,98845.22
2023-04-20T07:16:16.673Z,98845.97
2023-04-20T07:18:43.995Z,98841.59
2023-04-20T07:21:10.898Z,98847.16
2023-04-20T07:23:38.078Z,98841.44
2023-04-20T07:26:05.098Z,98848.13
2023-04-20T07:28:32.948Z,98834.72
2023-04-20T07:31:00.008Z,98835.28
2023-04-20T07:33:27.934Z,98836.31
2023-04-20T07:35:54.768Z,98841.41
2023-04-20T07:38:21.911Z,98838.63
2023-04-20T07:40:48.807Z,98839.19
2023-04-20T07:43:15.956Z,98841.88
2023-04-20T07:45:42.987Z,98847.25
2023-04-20T07:48:12.539Z,98844.41
2023-04-20T07:50:39.944Z,98847.75
2023-04-20T07:53:07.298Z,98846.63
2023-04-20T07:55:34.251Z,98838.19
2023-04-20T07:58:01.459Z,98851.13
2023-04-20T08:00:28.497Z,98848.16
2023-04-20T08:02:55.919Z,98848.72
2023-04-20T08:05:24.568Z,98852.94
2023-04-20T08:07:52.158Z,98852.31
2023-04-20T08:10:19.123Z,98843.75
2023-04-20T08:12:47.167Z,98847.88
2023-04-20T08:15:14.627Z,98842.25
2023-04-20T08:17:41.915Z,98849.59
2023-04-20T08:20:09.286Z,98846.94
2023-04-20T08:22:36.560Z,98843.13
2023-04-20T08:25:03.708Z,98848.22
2023-04-20T08:27:30.757Z,98848.47
2023-04-20T08:29:58.120Z,98842.75
2023-04-20T08:32:27.066Z,98841.16
2023-04-20T08:34:55.350Z,98836.97
2023-04-20T08:37:22.432Z,98839.66
2023-04-20T08:39:49.642Z,98841.31
2023-04-20T08:42:17.118Z,98846.44
2023-04-20T08:44:44.313Z,98838.41
2023-04-20T08:47:12.136Z,98836.34
2023-04-20T08:49:40.404Z,98832.47
2023-04-20T08:52:10.839Z,98839.53
2023-04-20T08:54:45.942Z,98834.72
2023-04-20T08:57:16.545Z,98824.09
2023-04-20T08:59:43.721Z,98834.34
2023-04-20T09:02:12.083Z,98833.00
2023-04-20T09:04:40.943Z,98820.56
2023-04-20T09:07:17.905Z,98826.38
2023-04-20T09:09:58.043Z,98841.22
2023-04-20T09:12:25.518Z,98835.34
2023-04-20T09:14:53.583Z,98831.03
2023-04-20T09:17:37.251Z,98826.41
2023-04-20T09:20:08.624Z,98822.72
2023-04-20T09:22:37.644Z,98812.63
2023-04-20T09:25:15.477Z,98819.13
2023-04-20T09:27:42.337Z,98811.94
2023-04-20T09:30:09.969Z,98815.91
2023-04-20T09:32:36.852Z,98825.03
2023-04-20T09:35:04.229Z,98820.31
2023-04-20T09:37:31.157Z,98828.78
2023-04-20T09:40:00.924Z,98817.81
2023-04-20T09:42:28.936Z,98809.94
2023-04-20T09:44:57.588Z,98811.72
2023-04-20T09:47:26.891Z,98804.00
2023-04-20T09:49:54.902Z,98803.25
2023-04-20T09:52:24.257Z,98800.03
2023-04-20T09:54:51.796Z,98806.72
2023-04-20T09:57:19.490Z,98804.94
2023-04-20T09:59:47.405Z,98807.09
2023-04-20T10:02:15.126Z,98804.03
2023-04-20T10:04:55.867Z,98806.69
2023-04-20T10:07:27.323Z,98812.91
2023-04-20T10:10:15.827Z,98810.63
2023-04-20T10:12:51.626Z,98793.50
2023-04-20T10:15:19.428Z,98781.09
2023-04-20T10:17:46.461Z,98786.66
2023-04-20T10:20:27.123Z,98793.69
2023-04-20T10:22:55.641Z,98800.66
2023-04-20T10:25:26.897Z,98789.16
2023-04-20T10:27:53.878Z,98788.69
2023-04-20T10:30:21.933Z,98777.47
2023-04-20T10:32:48.911Z,98775.66
2023-04-20T10:35:16.357Z,98779.66
2023-04-20T10:37:51.073Z,98779.53
2023-04-20T10:40:27.220Z,98763.69
2023-04-20T10:42:54.130Z,98782.38
2023-04-20T10:45:22.051Z,98782.22
2023-04-20T10:47:49.078Z,98781.78
2023-04-20T10:50:16.662Z,98776.81
2023-04-20T10:52:44.818Z,98759.81
2023-04-20T10:55:28.283Z,98766.63
2023-04-20T10:57:55.167Z,98770.09
2023-04-20T11:00:25.498Z,98750.59
2023-04-20T11:02:58.270Z,98763.56
2023-04-20T11:05:27.923Z,98766.13
2023-04-20T11:07:59.033Z,98755.56
2023-04-20T11:10:39.038Z,98757.75
2023-04-20T11:13:06.086Z,98764.75
2023-04-20T11:15:34.157Z,98746.66
2023-04-20T11:18:12.171Z,98756.72
2023-04-20T11:20:54.070Z,98752.63
2023-04-20T11:23:22.673Z,98753.91
2023-04-20T11:25:53.960Z,98746.34
2023-04-20T11:28:21.033Z,98761.56
2023-04-20T11:30:49.727Z,98761.75
2023-04-20T11:33:28.225Z,98754.97
2023-04-20T11:35:56.791Z,98754.09
2023-04-20T11:38:34.271Z,98753.41
2023-04-20T11:41:08.013Z,98762.09
2023-04-20T11:43:36.055Z,98756.94
2023-04-20T11:46:03.652Z,98757.00
2023-04-20T11:48:31.707Z,98764.56
2023-04-20T11:50:58.951Z,98758.88
2023-04-20T11:53:25.888Z,98755.84
2023-04-20T11:55:53.010Z,98771.59
2023-04-20T11:58:19.847Z,98757.59
2023-04-20T12:00:47.019Z,98758.97
2023-04-20T12:03:14.034Z,98763.22
2023-04-20T12:05:43.345Z,98765.41
2023-04-20T12:08:10.360Z,98762.41
2023-04-20T12:10:37.588Z,98764.25
2023-04-20T12:13:04.519Z,98754.53
2023-04-20T12:15:31.886Z,98751.19
2023-04-20T12:17:58.906Z,98753.25
2023-04-20T12:20:26.307Z,98748.91
2023-04-20T12:22:53.250Z,98752.69
2023-04-20T12:25:20.719Z,98743.19
2023-04-20T12:27:49.436Z,98754.44
2023-04-20T12:30:17.228Z,98750.91
2023-04-20T12:32:44.092Z,98753.63
2023-04-20T12:35:11.294Z,98747.69
2023-04-20T12:37:38.106Z,98742.44
2023-04-20T12:40:06.627Z,98749.78
2023-04-20T12:42:33.627Z,98747.22
2023-04-20T12:45:00.765Z,98749.41
2023-04-20T12:47:27.655Z,98746.91
2023-04-20T12:49:55.187Z,98743.75
2023-04-20T12:52:22.100Z,98740.06
2023-04-20T12:54:50.004Z,98747.25
2023-04-20T12:57:17.174Z,98746.78
2023-04-20T12:59:44.305Z,98744.38
2023-04-20T13:02:12.149Z,98736.50
2023-04-20T13:04:39.520Z,98744.13
2023-04-20T13:07:07.173Z,98744.34
2023-04-20T13:09:34.439Z,98736.13
2023-04-20T13:12:01.397Z,98739.22
2023-04-20T13:14:29.722Z,98731.31
2023-04-20T13:16:56.727Z,98734.47
2023-04-20T13:19:23.953Z,98731.69
2023-04-20T13:21:50.901Z,98736.56
2023-04-20T13:24:18.336Z,98727.47
2023-04-20T13:26:45.690Z,98732.59
2023-04-20T13:29:13.077Z,98750.56
2023-04-20T13:31:40.752Z,98731.03
2023-04-20T13:34:08.003Z,98729.44
2023-04-20T13:36:34.908Z,98728.78
2023-04-20T13:39:02.137Z,98729.50
2023-04-20T13:41:29.039Z,98730.13
2023-04-20T13:43:57.949Z,98738.63
2023-04-20T13:46:25.021Z,98730.88
2023-04-20T13:48:52.269Z,98736.81
2023-04-20T13:51:19.677Z,98738.13
2023-04-20T13:53:50.140Z,98735.09
2023-04-20T13:56:17.188Z,98735.66
2023-04-20T13:58:44.740Z,98732.06
2023-04-20T14:01:13.452Z,98717.03
2023-04-20T14:03:42.017Z,98720.94
2023-04-20T14:06:09.086Z,98708.16
2023-04-20T14:08:36.376Z,98718.28
2023-04-20T14:11:03.230Z,98724.59
2023-04-20T14:13:30.507Z,98713.88
2023-04-20T14:15:57.747Z,98707.47
2023-04-20T14:18:24.922Z,98710.56
2023-04-20T14:20:52.490Z,98720.03
2023-04-20T14:23:19.791Z,98709.91
2023-04-20T14:25:46.649Z,98712.34
2023-04-20T14:28:16.786Z,98724.06
2023-04-20T14:30:45.372Z,98722.31
2023-04-20T14:33:13.015Z,98726.56
2023-04-20T14:35:40.493Z,98722.06
2023-04-20T14:38:07.676Z,98723.03
2023-04-20T14:40:34.864Z,98727.16
2023-04-20T14:43:02.024Z,98721.78
2023-04-20T14:45:28.973Z,98728.72
2023-04-20T14:47:57.145Z,98724.81
2023-04-20T14:50:28.911Z,98725.63
2023-04-20T14:52:56.324Z,98727.47
2023-04-20T14:55:25.806Z,98736.50
2023-04-20T14:57:56.502Z,98743.91
2023-04-20T15:00:24.812Z,98744.16
2023-04-20T15:02:53.617Z,98741.28
2023-04-20T15:05:20.688Z,98739.22
2023-04-20T15:07:50.777Z,98737.88
2023-04-20T15:10:19.497Z,98733.91
2023-04-20T15:12:48.049Z,98739.00
2023-04-20T15:15:17.106Z,98742.91
2023-04-20T15:17:45.991Z,98736.72
2023-04-20T15:20:15.228Z,98733.56
2023-04-20T15:22:42.562Z,98739.63
2023-04-20T15:25:09.804Z,98741.09
2023-04-20T15:27:37.017Z,98737.19
2023-04-20T15:30:05.174Z,98735.38
2023-04-20T15:32:35.585Z,98735.97
2023-04-20T15:35:02.725Z,98736.69
2023-04-20T15:37:30.083Z,98745.06
2023-04-20T15:39:57.091Z,98733.69
2023-04-20T15:42:24.240Z,98741.72
2023-04-20T15:44:51.138Z,98736.84
2023-04-20T15:47:18.306Z,98739.16
2023-04-20T15:49:45.371Z,98742.09
2023-04-20T15:52:12.501Z,98741.47
2023-04-20T15:54:39.848Z,98739.53
2023-04-20T15:57:07.085Z,98738.34
2023-04-20T15:59:33.948Z,98735.41
2023-04-20T16:02:01.199Z,98727.03
2023-04-20T16:04:28.118Z,98727.53
2023-04-20T16:06:55.430Z,98728.97
2023-04-20T16:09:23.796Z,98733.78
2023-04-20T16:11:51.204Z,98732.47
2023-04-20T16:14:18.455Z,98733.75
2023-04-20T16:16:46.029Z,98732.44
2023-04-20T16:19:15.960Z,98729.25
2023-04-20T16:21:43.186Z,98727.09
2023-04-20T16:24:10.078Z,98734.44
2023-04-20T16:26:38.960Z,98735.78
2023-04-20T16:29:06.483Z,98738.91
2023-04-20T16:31:37.486Z,98741.78
2023-04-20T16:34:04.469Z,98735.97
2023-04-20T16:36:32.164Z,98733.53
2023-04-20T16:38:59.038Z,98729.41
2023-04-20T16:41:27.235Z,98731.44
2023-04-20T16:43:54.196Z,98738.81
2023-04-20T16:46:22.392Z,98734.03
2023-04-20T16:48:50.815Z,98740.78
2023-04-20T16:51:18.025Z,98737.84
2023-04-20T16:53:45.455Z,98741.09
2023-04-20T16:56:12.827Z,98740.53
2023-04-20T16:58:39.641Z,98738.56
2023-04-20T17:01:07.995Z,98747.94
2023-04-20T17:03:35.196Z,98741.25
2023-04-20T17:06:07.515Z,98744.47
2023-04-20T17:08:34.762Z,98744.06
2023-04-20T17:11:02.088Z,98740.03
2023-04-20T17:13:28.939Z,98745.66
2023-04-20T17:15:56.407Z,98746.09
2023-04-20T17:18:23.367Z,98747.50
2023-04-20T17:20:50.722Z,98748.91
2023-04-20T17:23:18.207Z,98752.06
2023-04-20T17:25:47.388Z,98757.19
2023-04-20T17:28:14.757Z,98754.34
2023-04-20T17:30:41.991Z,98760.28
2023-04-20T17:33:12.193Z,98762.59
2023-04-20T17:35:39.579Z,98768.19
2023-04-20T17:38:06.639Z,98765.09
2023-04-20T17:40:34.047Z,98763.59
2023-04-20T17:43:02.241Z,98769.31
2023-04-20T17:45:29.410Z,98771.66
2023-04-20T17:47:56.528Z,98773.75
2023-04-20T17:50:24.444Z,98775.13
2023-04-20T17:52:51.926Z,98770.22
2023-04-20T17:55:19.072Z,98777.63
2023-04-20T17:57:45.945Z,98778.91
2023-04-20T18:00:13.732Z,98786.41
2023-04-20T18:02:41.171Z,98784.16
2023-04-20T18:05:08.812Z,98788.03
2023-04-20T18:07:35.908Z,98790.91
2023-04-20T18:10:04.267Z,98785.81
2023-04-20T18:12:31.163Z,98789.59
2023-04-20T18:14:58.267Z,98790.75
2023-04-20T18:17:25.332Z,98794.53
2023-04-20T18:19:52.507Z,98788.91
2023-04-20T18:22:19.500Z,98800.81
2023-04-20T18:24:46.692Z,98794.28
2023-04-20T18:27:13.610Z,98803.66
2023-04-20T18:29:40.744Z,98800.34
2023-04-20T18:32:08.147Z,98802.59
2023-04-20T18:34:35.511Z,98805.75
2023-04-20T18:37:02.412Z,98813.69
2023-04-20T18:39:30.027Z,98818.69
2023-04-20T18:41:56.912Z,98818.97
2023-04-20T18:44:24.217Z,98822.66
2023-04-20T18:46:51.182Z,98825.56
2023-04-20T18:49:18.319Z,98814.28
2023-04-20T18:51:45.143Z,98825.09
2023-04-20T18:54:12.267Z,98822.72
2023-04-20T18:56:39.680Z,98822.91
2023-04-20T18:59:08.609Z,98829.06
2023-04-20T19:01:40.532Z,98826.66
2023-04-20T19:04:08.611Z,98830.44
2023-04-20T19:06:36.000Z,98823.59
2023-04-20T19:09:03.346Z,98826.44
2023-04-20T19:11:31.681Z,98828.59
2023-04-20T19:13:58.864Z,98828.94
2023-04-20T19:16:25.764Z,98831.09
2023-04-20T19:18:53.695Z,98830.66
2023-04-20T19:21:22.114Z,98837.19
2023-04-20T19:23:49.422Z,98841.72
2023-04-20T19:26:17.905Z,98838.63
2023-04-20T19:28:45.996Z,98845.22
2023-04-20T19:31:13.431Z,98847.31
2023-04-20T19:33:41.089Z,98846.63
2023-04-20T19:36:08.382Z,98858.09
2023-04-20T19:38:37.576Z,98853.72
2023-04-20T19:41:06.168Z,98855.59
2023-04-20T19:43:33.623Z,98865.25
2023-04-20T19:46:01.390Z,98861.66
2023-04-20T19:48:28.704Z,98867.06
2023-04-20T19:50:59.277Z,98863.53
2023-04-20T19:53:27.143Z,98870.28
2023-04-20T19:55:53.974Z,98868.41
2023-04-20T19:58:21.234Z,98875.16
2023-04-20T20:00:48.063Z,98864.19
2023-04-20T20:03:16.278Z,98871.00
2023-04-20T20:05:44.581Z,98876.13
2023-04-20T20:08:11.822Z,98870.75
2023-04-20T20:10:38.809Z,98881.22
2023-04-20T20:13:06.153Z,98866.91
2023-04-20T20:15:33.226Z,98870.06
2023-04-20T20:18:00.715Z,98872.69
2023-04-20T20:20:30.478Z,98865.72
2023-04-20T20:22:58.129Z,98865.09
2023-04-20T20:25:25.642Z,98854.44
2023-04-20T20:27:53.173Z,98855.47
2023-04-20T20:30:20.033Z,98862.56
2023-04-20T20:32:47.253Z,98851.09
2023-04-20T20:35:14.186Z,98858.38
2023-04-20T20:37:41.674Z,98856.56
2023-04-20T20:40:14.866Z,98855.03
2023-04-20T20:42:43.065Z,98862.13
2023-04-20T20:45:12.539Z,98850.59
2023-04-20T20:47:41.231Z,98862.97
2023-04-20T20:50:09.259Z,98864.91
2023-04-20T20:52:36.571Z,98865.75
2023-04-20T20:55:04.364Z,98865.75
2023-04-20T20:57:31.612Z,98863.81
2023-04-20T20:59:58.500Z,98869.25
2023-04-20T21:02:25.826Z,98866.69
2023-04-20T21:04:53.628Z,98869.34
2023-04-20T21:07:20.810Z,98862.34
2023-04-20T21:09:47.677Z,98866.69
2023-04-20T21:12:14.874Z,98865.06
2023-04-20T21:14:41.707Z,98854.66
2023-04-20T21:17:09.055Z,98856.47
2023-04-20T21:19:35.952Z,98854.03
2023-04-20T21:22:03.250Z,98860.47
2023-04-20T21:24:30.077Z,98853.72
2023-04-20T21:26:58.161Z,98846.72
2023-04-20T21:29:25.051Z,98845.78
2023-04-20T21:31:52.271Z,98841.50
2023-04-20T21:34:19.223Z,98843.19
2023-04-20T21:36:46.451Z,98838.09
2023-04-20T21:39:13.326Z,98842.53
2023-04-20T21:41:40.592Z,98844.47
2023-04-20T21:44:07.539Z,98845.50
2023-04-20T21:46:36.073Z,98842.34
2023-04-20T21:49:03.078Z,98838.91
2023-04-20T21:51:30.192Z,98833.81
2023-04-20T21:53:57.005Z,98833.22
2023-04-20T21:56:24.165Z,98826.38
2023-04-20T21:58:51.055Z,98825.75
2023-04-20T22:01:18.301Z,98834.03
2023-04-20T22:03:45.401Z,98829.06
2023-04-20T22:06:12.712Z,98825.66
2023-04-20T22:08:39.916Z,98825.97
2023-04-20T22:11:07.465Z,98834.97
2023-04-20T22:13:34.903Z,98831.66
2023-04-20T22:16:02.206Z,98826.44
2023-04-20T22:18:29.213Z,98823.38
2023-04-20T22:20:56.331Z,98822.97
2023-04-20T22:23:23.208Z,98822.53
2023-04-20T22:25:50.431Z,98819.38
2023-04-20T22:28:17.354Z,98820.53
2023-04-20T22:30:44.519Z,98812.84
2023-04-20T22:33:11.405Z,98817.50
2023-04-20T22:35:38.565Z,98806.69
2023-04-20T22:38:05.752Z,98814.50
2023-04-20T22:40:32.962Z,98812.25
2023-04-20T22:42:59.801Z,98812.84
2023-04-20T22:45:26.950Z,98808.78
2023-04-20T22:47:53.871Z,98807.44
2023-04-20T22:50:21.109Z,98805.94
2023-04-20T22:52:49.580Z,98808.75
2023-04-20T22:55:16.920Z,98801.00
2023-04-20T22:57:43.763Z,98800.34
2023-04-20T23:00:13.646Z,98798.06
2023-04-20T23:02:41.547Z,98798.44
2023-04-20T23:05:09.753Z,98801.50
2023-04-20T23:07:37.573Z,98801.84
2023-04-20T23:10:06.162Z,98802.22
2023-04-20T23:12:33.410Z,98800.88
2023-04-20T23:15:01.441Z,98794.94
2023-04-20T23:17:28.835Z,98797.56
2023-04-20T23:19:56.615Z,98795.94
2023-04-20T23:22:23.638Z,98795.44
2023-04-20T23:24:50.810Z,98792.50
2023-04-20T23:27:17.800Z,98786.84
2023-04-20T23:29:45.218Z,98797.50
2023-04-20T23:32:12.118Z,98795.94
2023-04-20T23:34:39.348Z,98795.41
2023-04-20T23:37:06.201Z,98798.25
2023-04-20T23:39:37.240Z,98800.28
2023-04-20T23:42:06.862Z,98791.78
2023-04-20T23:44:34.016Z,98790.16
2023-04-20T23:47:00.939Z,98794.06
2023-04-20T23:49:28.161Z,98790.13
2023-04-20T23:51:55.019Z,98779.25
2023-04-20T23:54:22.271Z,98785.88
2023-04-20T23:56:49.236Z,98775.84
2023-04-20T23:59:16.886Z,98777.44
